createdAt,value
2018-01-26T00:01:01.427Z,7.00
2018-01-26T00:03:27.657Z,7.00
2018-01-26T00:05:53.873Z,6.90
2018-01-26T00:08:20.093Z,6.80
2018-01-26T00:10:46.370Z,6.90
2018-01-26T00:13:12.561Z,7.00
2018-01-26T00:15:38.770Z,6.90
2018-01-26T00:18:05.026Z,7.00
2018-01-26T00:20:31.208Z,7.00
2018-01-26T00:22:58.132Z,6.90
2018-01-26T00:25:24.312Z,7.00
2018-01-26T00:27:50.572Z,7.00
2018-01-26T00:30:17.521Z,7.10
2018-01-26T00:32:44.442Z,7.20
2018-01-26T00:35:10.710Z,7.20
2018-01-26T00:37:37.643Z,7.10
2018-01-26T00:40:03.869Z,7.10
2018-01-26T00:42:30.004Z,7.00
2018-01-26T00:44:56.223Z,7.10
2018-01-26T00:47:22.388Z,7.00
2018-01-26T00:49:49.363Z,6.90
2018-01-26T00:52:15.506Z,6.90
2018-01-26T00:54:41.726Z,6.90
2018-01-26T00:57:07.949Z,7.00
2018-01-26T00:59:34.149Z,6.90
2018-01-26T01:02:00.372Z,6.90
2018-01-26T01:04:26.525Z,6.90
2018-01-26T01:06:52.717Z,7.00
2018-01-26T01:09:19.654Z,7.00
2018-01-26T01:11:46.583Z,7.10
2018-01-26T01:14:12.820Z,7.00
2018-01-26T01:16:39.801Z,7.20
2018-01-26T01:19:05.981Z,7.10
2018-01-26T01:21:32.938Z,7.00
2018-01-26T01:23:59.910Z,7.00
2018-01-26T01:26:26.098Z,7.00
2018-01-26T01:28:52.311Z,7.00
2018-01-26T01:31:18.585Z,7.00
2018-01-26T01:33:45.567Z,7.00
2018-01-26T01:36:11.790Z,7.00
2018-01-26T01:38:37.994Z,7.00
2018-01-26T01:41:04.936Z,7.00
2018-01-26T01:43:31.868Z,7.00
2018-01-26T01:45:58.776Z,6.90
2018-01-26T01:48:24.978Z,6.90
2018-01-26T01:50:51.106Z,6.90
2018-01-26T01:53:17.341Z,7.00
2018-01-26T01:55:43.593Z,7.00
2018-01-26T01:58:09.806Z,6.90
2018-01-26T02:00:36.030Z,6.90
2018-01-26T02:03:02.181Z,6.80
2018-01-26T02:05:28.358Z,6.80
2018-01-26T02:07:54.558Z,6.90
2018-01-26T02:10:21.530Z,7.10
2018-01-26T02:12:47.702Z,7.10
2018-01-26T02:15:13.924Z,7.10
2018-01-26T02:17:40.129Z,7.20
2018-01-26T02:20:06.342Z,7.10
2018-01-26T02:22:32.572Z,7.20
2018-01-26T02:24:58.845Z,7.10
2018-01-26T02:27:25.784Z,7.10
2018-01-26T02:29:52.050Z,7.10
2018-01-26T02:32:18.967Z,7.10
2018-01-26T02:34:45.191Z,7.10
2018-01-26T02:37:11.347Z,7.10
2018-01-26T02:39:38.258Z,7.10
2018-01-26T02:42:04.471Z,7.10
2018-01-26T02:44:30.643Z,7.20
2018-01-26T02:46:57.585Z,7.10
2018-01-26T02:49:24.558Z,7.00
2018-01-26T02:51:50.759Z,7.00
2018-01-26T02:54:16.902Z,7.00
2018-01-26T02:56:43.785Z,6.90
2018-01-26T02:59:10.030Z,6.90
2018-01-26T03:01:36.208Z,6.90
2018-01-26T03:04:03.202Z,6.70
2018-01-26T03:06:29.383Z,6.70
2018-01-26T03:08:56.275Z,6.70
2018-01-26T03:11:22.466Z,6.70
2018-01-26T03:13:48.667Z,6.70
2018-01-26T03:16:15.594Z,6.80
2018-01-26T03:18:42.534Z,6.90
2018-01-26T03:21:09.525Z,6.90
2018-01-26T03:23:35.741Z,6.90
2018-01-26T03:26:01.913Z,6.90
2018-01-26T03:28:28.152Z,6.80
2018-01-26T03:30:54.428Z,6.80
2018-01-26T03:33:21.367Z,6.80
2018-01-26T03:35:48.328Z,6.80
2018-01-26T03:38:14.565Z,6.80
2018-01-26T03:40:40.755Z,6.80
2018-01-26T03:43:06.969Z,6.80
2018-01-26T03:45:33.173Z,6.70
2018-01-26T03:47:59.352Z,6.80
2018-01-26T03:50:26.307Z,6.70
2018-01-26T03:52:52.566Z,6.70
2018-01-26T03:55:18.754Z,6.80
2018-01-26T03:57:45.673Z,6.90
2018-01-26T04:00:11.858Z,6.90
2018-01-26T04:02:38.062Z,6.90
2018-01-26T04:05:04.330Z,6.90
2018-01-26T04:07:30.521Z,6.90
2018-01-26T04:09:56.744Z,6.90
2018-01-26T04:12:23.700Z,6.90
2018-01-26T04:14:49.859Z,6.90
2018-01-26T04:17:16.079Z,6.90
2018-01-26T04:19:42.334Z,6.80
2018-01-26T04:22:09.289Z,6.70
2018-01-26T04:24:36.239Z,6.60
2018-01-26T04:27:02.470Z,6.60
2018-01-26T04:29:29.388Z,6.60
2018-01-26T04:31:55.568Z,6.50
2018-01-26T04:34:21.784Z,6.60
2018-01-26T04:36:48.775Z,6.70
2018-01-26T04:39:14.976Z,6.70
2018-01-26T04:41:41.228Z,6.80
2018-01-26T04:44:07.466Z,6.80
2018-01-26T04:46:33.697Z,6.80
2018-01-26T04:48:59.935Z,6.80
2018-01-26T04:51:26.101Z,6.90
2018-01-26T04:53:52.320Z,6.80
2018-01-26T04:56:19.299Z,6.90
2018-01-26T04:58:45.477Z,6.90
2018-01-26T05:01:11.630Z,6.90
2018-01-26T05:03:38.620Z,6.90
2018-01-26T05:06:04.827Z,6.90
2018-01-26T05:08:31.025Z,6.80
2018-01-26T05:10:57.972Z,6.80
2018-01-26T05:13:24.882Z,6.80
2018-01-26T05:15:51.135Z,6.80
2018-01-26T05:18:18.135Z,6.80
2018-01-26T05:20:44.326Z,6.80
2018-01-26T05:23:11.247Z,6.80
2018-01-26T05:25:37.467Z,6.80
2018-01-26T05:28:03.686Z,6.70
2018-01-26T05:30:29.874Z,6.60
2018-01-26T05:32:56.107Z,6.60
2018-01-26T05:35:22.304Z,6.70
2018-01-26T05:37:49.202Z,6.50
2018-01-26T05:40:15.464Z,6.50
2018-01-26T05:42:42.361Z,6.60
2018-01-26T05:45:08.530Z,6.60
2018-01-26T05:47:35.446Z,6.60
2018-01-26T05:50:01.662Z,6.60
2018-01-26T05:52:28.157Z,6.50
2018-01-26T05:54:55.115Z,6.50
2018-01-26T05:57:21.316Z,6.50
2018-01-26T05:59:48.266Z,6.50
2018-01-26T06:02:15.226Z,6.50
2018-01-26T06:04:42.203Z,6.50
2018-01-26T06:07:09.457Z,6.50
2018-01-26T06:09:35.676Z,6.30
2018-01-26T06:12:01.902Z,6.40
2018-01-26T06:14:28.107Z,6.40
2018-01-26T06:16:55.078Z,6.40
2018-01-26T06:19:21.317Z,6.40
2018-01-26T06:21:47.604Z,6.40
2018-01-26T06:24:14.599Z,6.30
2018-01-26T06:26:40.796Z,6.40
2018-01-26T06:29:07.337Z,6.30
2018-01-26T06:31:33.658Z,6.30
2018-01-26T06:33:59.875Z,6.30
2018-01-26T06:36:26.808Z,6.20
2018-01-26T06:38:53.790Z,6.20
2018-01-26T06:41:19.972Z,6.20
2018-01-26T06:43:46.228Z,6.10
2018-01-26T06:46:12.514Z,6.10
2018-01-26T06:48:38.791Z,6.20
2018-01-26T06:51:05.055Z,6.20
2018-01-26T06:53:31.272Z,6.10
2018-01-26T06:55:57.462Z,6.20
2018-01-26T06:58:24.422Z,6.20
2018-01-26T07:00:50.645Z,6.20
2018-01-26T07:03:16.846Z,6.10
2018-01-26T07:05:43.126Z,6.10
2018-01-26T07:08:09.343Z,6.10
2018-01-26T07:10:35.569Z,6.20
2018-01-26T07:13:01.805Z,6.20
2018-01-26T07:15:27.996Z,6.20
2018-01-26T07:17:54.180Z,6.20
2018-01-26T07:20:20.407Z,6.20
2018-01-26T07:22:46.573Z,6.20
2018-01-26T07:25:12.795Z,6.20
2018-01-26T07:27:39.754Z,6.10
2018-01-26T07:30:06.649Z,6.10
2018-01-26T07:32:32.869Z,6.10
2018-01-26T07:34:59.131Z,6.20
2018-01-26T07:37:26.032Z,6.20
2018-01-26T07:39:52.271Z,6.20
2018-01-26T07:42:18.488Z,6.20
2018-01-26T07:44:44.660Z,6.20
2018-01-26T07:47:10.819Z,6.30
2018-01-26T07:49:37.826Z,6.50
2018-01-26T07:52:04.081Z,6.50
2018-01-26T07:54:31.050Z,6.60
2018-01-26T07:56:57.993Z,6.50
2018-01-26T07:59:24.238Z,6.60
2018-01-26T08:01:50.423Z,6.60
2018-01-26T08:04:17.405Z,6.60
2018-01-26T08:06:43.647Z,6.50
2018-01-26T08:09:09.863Z,6.60
2018-01-26T08:11:36.160Z,6.60
2018-01-26T08:14:03.261Z,6.70
2018-01-26T08:16:29.467Z,6.60
2018-01-26T08:18:55.770Z,6.70
2018-01-26T08:21:22.720Z,6.80
2018-01-26T08:23:49.724Z,6.80
2018-01-26T08:26:15.959Z,6.80
2018-01-26T08:28:42.152Z,6.80
2018-01-26T08:31:08.811Z,6.90
2018-01-26T08:33:35.032Z,6.90
2018-01-26T08:36:01.203Z,6.90
2018-01-26T08:38:27.359Z,7.00
2018-01-26T08:40:54.267Z,7.20
2018-01-26T08:43:21.211Z,7.20
2018-01-26T08:45:47.443Z,7.20
2018-01-26T08:48:14.463Z,7.00
2018-01-26T08:50:40.647Z,7.00
2018-01-26T08:53:07.606Z,7.00
2018-01-26T08:55:34.572Z,7.20
2018-01-26T08:58:00.818Z,7.20
2018-01-26T09:00:27.027Z,7.20
2018-01-26T09:02:53.299Z,7.30
2018-01-26T09:05:19.522Z,7.20
2018-01-26T09:07:45.707Z,7.20
2018-01-26T09:10:11.945Z,7.20
2018-01-26T09:12:38.157Z,7.30
2018-01-26T09:15:04.395Z,7.30
2018-01-26T09:17:30.573Z,7.30
2018-01-26T09:19:57.576Z,7.40
2018-01-26T09:22:23.827Z,7.40
2018-01-26T09:24:50.083Z,7.40
2018-01-26T09:27:17.100Z,7.40
2018-01-26T09:29:44.073Z,7.50
2018-01-26T09:32:11.084Z,7.50
2018-01-26T09:34:37.286Z,7.50
2018-01-26T09:37:03.475Z,7.50
2018-01-26T09:39:30.411Z,7.50
2018-01-26T09:41:56.667Z,7.50
2018-01-26T09:44:22.877Z,7.50
2018-01-26T09:46:49.855Z,7.40
2018-01-26T09:49:16.056Z,7.40
2018-01-26T09:51:43.027Z,7.50
2018-01-26T09:54:09.247Z,7.50
2018-01-26T09:56:35.417Z,7.50
2018-01-26T09:59:01.634Z,7.60
2018-01-26T10:01:27.805Z,7.60
2018-01-26T10:03:54.709Z,7.70
2018-01-26T10:06:20.951Z,7.70
2018-01-26T10:08:47.869Z,8.00
2018-01-26T10:11:14.087Z,8.00
2018-01-26T10:13:40.331Z,8.10
2018-01-26T10:16:06.531Z,8.20
2018-01-26T10:18:32.735Z,8.30
2018-01-26T10:20:58.894Z,8.20
2018-01-26T10:23:25.153Z,8.20
2018-01-26T10:25:51.315Z,8.30
2018-01-26T10:28:17.474Z,8.30
2018-01-26T10:30:43.704Z,8.30
2018-01-26T10:33:09.872Z,8.40
2018-01-26T10:35:36.150Z,8.30
2018-01-26T10:38:02.404Z,8.30
2018-01-26T10:40:28.686Z,8.30
2018-01-26T10:45:16.593Z,8.50
2018-01-26T10:47:42.788Z,8.40
2018-01-26T10:50:08.985Z,8.40
2018-01-26T10:52:35.253Z,8.40
2018-01-26T10:55:01.414Z,8.40
2018-01-26T10:57:27.644Z,8.40
2018-01-26T10:59:53.820Z,8.50
2018-01-26T11:02:20.718Z,8.90
2018-01-26T11:04:46.935Z,8.90
2018-01-26T11:07:13.119Z,9.30
2018-01-26T11:09:40.098Z,9.90
2018-01-26T11:12:06.282Z,9.90
2018-01-26T11:14:33.251Z,10.30
2018-01-26T11:16:59.391Z,10.30
2018-01-26T11:19:25.604Z,10.50
2018-01-26T11:21:51.795Z,10.20
2018-01-26T11:24:18.029Z,10.10
2018-01-26T11:26:44.961Z,9.70
2018-01-26T11:29:11.082Z,9.70
2018-01-26T11:31:37.238Z,9.60
2018-01-26T11:34:04.347Z,9.80
2018-01-26T11:36:30.618Z,9.70
2018-01-26T11:38:57.531Z,10.50
2018-01-26T11:41:23.710Z,10.50
2018-01-26T11:43:49.971Z,10.80
2018-01-26T11:46:16.137Z,11.00
2018-01-26T11:48:43.078Z,10.90
2018-01-26T11:51:10.069Z,10.60
2018-01-26T11:53:36.228Z,10.60
2018-01-26T11:56:02.441Z,10.10
2018-01-26T11:58:28.632Z,10.10
2018-01-26T12:00:54.827Z,10.20
2018-01-26T12:03:21.049Z,10.00
2018-01-26T12:05:47.302Z,9.70
2018-01-26T12:08:14.875Z,9.60
2018-01-26T12:10:41.133Z,9.60
2018-01-26T12:13:07.346Z,9.60
2018-01-26T12:15:33.528Z,9.60
2018-01-26T12:17:59.684Z,9.60
2018-01-26T12:20:26.710Z,9.80
2018-01-26T12:22:52.872Z,9.80
2018-01-26T12:25:19.137Z,9.80
2018-01-26T12:27:45.423Z,9.90
2018-01-26T12:30:11.608Z,9.90
2018-01-26T12:32:37.772Z,9.90
2018-01-26T12:35:04.711Z,9.80
2018-01-26T12:37:31.695Z,9.90
2018-01-26T12:39:57.900Z,9.90
2018-01-26T12:42:24.071Z,9.90
2018-01-26T12:44:50.291Z,9.90
2018-01-26T12:47:16.524Z,9.90
2018-01-26T12:49:42.738Z,9.80
2018-01-26T12:52:09.070Z,9.80
2018-01-26T12:54:35.260Z,10.00
2018-01-26T12:57:02.225Z,10.10
2018-01-26T12:59:28.455Z,10.10
2018-01-26T13:01:54.662Z,10.20
2018-01-26T13:04:20.795Z,10.20
2018-01-26T13:06:47.031Z,10.30
2018-01-26T13:09:13.213Z,10.30
2018-01-26T13:11:39.360Z,10.30
2018-01-26T13:14:05.550Z,10.60
2018-01-26T13:16:31.719Z,10.70
2018-01-26T13:18:58.723Z,11.40
2018-01-26T13:21:24.945Z,11.40
2018-01-26T13:23:51.089Z,12.00
2018-01-26T13:26:17.286Z,12.10
2018-01-26T13:28:43.526Z,11.90
2018-01-26T13:31:09.790Z,11.80
2018-01-26T13:33:36.779Z,11.30
2018-01-26T13:36:03.004Z,11.20
2018-01-26T13:38:29.176Z,11.10
2018-01-26T13:40:55.412Z,11.00
2018-01-26T13:43:21.599Z,10.80
2018-01-26T13:45:47.826Z,10.60
2018-01-26T13:48:14.019Z,10.40
2018-01-26T13:50:40.986Z,10.20
2018-01-26T13:53:07.148Z,10.20
2018-01-26T13:55:33.375Z,10.10
2018-01-26T13:57:59.603Z,10.00
2018-01-26T14:00:25.839Z,10.00
2018-01-26T14:02:52.015Z,10.00
2018-01-26T14:05:18.240Z,10.00
2018-01-26T14:07:44.452Z,9.90
2018-01-26T14:10:11.405Z,9.90
2018-01-26T14:12:37.582Z,9.90
2018-01-26T14:15:03.773Z,9.90
2018-01-26T14:17:29.935Z,9.90
2018-01-26T14:19:56.105Z,9.80
2018-01-26T14:22:22.980Z,9.90
2018-01-26T14:24:49.173Z,9.80
2018-01-26T14:27:16.075Z,9.70
2018-01-26T14:29:42.324Z,9.60
2018-01-26T14:32:08.550Z,9.70
2018-01-26T14:34:34.774Z,9.60
2018-01-26T14:37:00.974Z,9.60
2018-01-26T14:39:27.145Z,9.60
2018-01-26T14:41:53.314Z,9.60
2018-01-26T14:44:19.516Z,9.50
2018-01-26T14:46:46.397Z,9.60
2018-01-26T14:49:12.598Z,9.60
2018-01-26T14:51:39.536Z,9.60
2018-01-26T14:54:06.474Z,9.50
2018-01-26T14:56:33.434Z,9.50
2018-01-26T14:58:59.646Z,9.50
2018-01-26T15:01:26.627Z,9.40
2018-01-26T15:03:52.857Z,9.40
2018-01-26T15:06:19.014Z,9.30
2018-01-26T15:08:45.230Z,9.30
2018-01-26T15:11:11.418Z,9.20
2018-01-26T15:13:38.406Z,9.10
2018-01-26T15:16:04.609Z,9.10
2018-01-26T15:18:30.835Z,9.10
2018-01-26T15:20:57.004Z,9.10
2018-01-26T15:23:23.199Z,9.00
2018-01-26T15:25:49.418Z,9.10
2018-01-26T15:28:15.699Z,9.00
2018-01-26T15:30:41.967Z,9.00
2018-01-26T15:33:08.206Z,9.00
2018-01-26T15:35:34.442Z,9.10
2018-01-26T15:38:00.578Z,9.10
2018-01-26T15:40:26.754Z,9.10
2018-01-26T15:42:53.741Z,8.90
2018-01-26T15:45:20.026Z,8.90
2018-01-26T15:47:47.003Z,8.80
2018-01-26T15:50:13.227Z,8.80
2018-01-26T15:52:39.424Z,8.80
2018-01-26T15:55:05.618Z,8.80
2018-01-26T15:57:31.806Z,8.70
2018-01-26T15:59:58.070Z,8.70
2018-01-26T16:02:24.261Z,8.70
2018-01-26T16:04:50.453Z,8.70
2018-01-26T16:07:17.441Z,8.60
2018-01-26T16:09:43.683Z,8.60
2018-01-26T16:12:09.981Z,8.60
2018-01-26T16:14:36.913Z,8.60
2018-01-26T16:17:03.162Z,8.50
2018-01-26T16:19:29.327Z,8.50
2018-01-26T16:21:55.496Z,8.50
2018-01-26T16:24:22.452Z,8.60
2018-01-26T16:26:49.407Z,8.60
2018-01-26T16:29:16.328Z,8.60
2018-01-26T16:31:42.467Z,8.50
2018-01-26T16:34:09.418Z,8.50
2018-01-26T16:36:36.393Z,8.50
2018-01-26T16:39:02.611Z,8.50
2018-01-26T16:41:28.842Z,8.50
2018-01-26T16:43:55.161Z,8.40
2018-01-26T16:46:22.127Z,8.40
2018-01-26T16:48:48.339Z,8.40
2018-01-26T16:51:14.530Z,8.40
2018-01-26T16:53:40.818Z,8.40
2018-01-26T16:56:07.032Z,8.50
2018-01-26T16:58:33.222Z,8.40
2018-01-26T17:00:59.491Z,8.50
2018-01-26T17:03:25.719Z,8.50
2018-01-26T17:05:51.970Z,8.60
2018-01-26T17:08:18.159Z,8.70
2018-01-26T17:10:45.054Z,8.60
2018-01-26T17:13:11.251Z,8.60
2018-01-26T17:15:37.525Z,8.50
2018-01-26T17:18:03.777Z,8.50
2018-01-26T17:20:30.804Z,8.50
2018-01-26T17:22:57.030Z,8.50
2018-01-26T17:25:23.218Z,8.40
2018-01-26T17:27:49.819Z,8.30
2018-01-26T17:30:16.021Z,8.40
2018-01-26T17:32:42.243Z,8.40
2018-01-26T17:35:08.430Z,8.30
2018-01-26T17:37:34.685Z,8.40
2018-01-26T17:40:00.873Z,8.30
2018-01-26T17:42:27.102Z,8.30
2018-01-26T17:44:53.290Z,8.40
2018-01-26T17:47:19.482Z,8.30
2018-01-26T17:49:45.628Z,8.30
2018-01-26T17:52:11.840Z,8.30
2018-01-26T17:54:38.056Z,8.30
2018-01-26T17:57:04.229Z,8.30
2018-01-26T17:59:30.495Z,8.30
2018-01-26T18:01:56.837Z,8.30
2018-01-26T18:04:23.200Z,8.30
2018-01-26T18:06:49.516Z,8.20
2018-01-26T18:09:15.739Z,8.20
2018-01-26T18:11:41.969Z,8.10
2018-01-26T18:14:08.232Z,8.10
2018-01-26T18:16:34.430Z,8.00
2018-01-26T18:19:00.599Z,8.00
2018-01-26T18:21:26.816Z,8.10
2018-01-26T18:23:52.961Z,8.00
2018-01-26T18:26:19.870Z,7.90
2018-01-26T18:28:46.048Z,7.90
2018-01-26T18:31:13.045Z,7.90
2018-01-26T18:33:39.192Z,7.90
2018-01-26T18:36:05.417Z,7.90
2018-01-26T18:38:31.649Z,7.90
2018-01-26T18:40:57.794Z,7.80
2018-01-26T18:43:24.794Z,7.80
2018-01-26T18:45:50.975Z,7.80
2018-01-26T18:48:17.180Z,7.90
2018-01-26T18:50:43.351Z,7.80
2018-01-26T18:53:09.555Z,7.70
2018-01-26T18:55:36.508Z,7.80
2018-01-26T18:58:03.464Z,7.70
2018-01-26T19:00:29.731Z,7.70
2018-01-26T19:02:55.958Z,7.70
2018-01-26T19:05:22.148Z,7.70
2018-01-26T19:07:48.365Z,7.70
2018-01-26T19:10:15.397Z,7.70
2018-01-26T19:12:42.331Z,7.60
2018-01-26T19:15:08.561Z,7.60
2018-01-26T19:17:35.587Z,7.80
2018-01-26T19:20:01.868Z,7.70
2018-01-26T19:22:28.110Z,7.90
2018-01-26T19:24:54.288Z,7.80
2018-01-26T19:27:20.443Z,7.80
2018-01-26T19:29:47.333Z,7.80
2018-01-26T19:32:14.372Z,7.80
2018-01-26T19:34:40.547Z,7.80
2018-01-26T19:37:07.515Z,7.90
2018-01-26T19:39:33.790Z,7.90
2018-01-26T19:42:00.012Z,7.90
2018-01-26T19:44:26.244Z,7.80
2018-01-26T19:46:52.571Z,7.80
2018-01-26T19:49:18.821Z,7.80
2018-01-26T19:51:45.017Z,7.80
2018-01-26T19:54:11.238Z,7.80
2018-01-26T19:56:37.432Z,7.80
2018-01-26T19:59:03.684Z,7.80
2018-01-26T20:01:29.945Z,7.80
2018-01-26T20:04:03.989Z,7.90
2018-01-26T20:09:48.336Z,7.70
2018-01-26T20:12:14.556Z,7.70
2018-01-26T20:14:40.738Z,7.70
2018-01-26T20:17:07.716Z,7.60
2018-01-26T20:19:33.884Z,7.60
2018-01-26T20:22:00.072Z,7.50
2018-01-26T20:24:26.292Z,7.50
2018-01-26T20:26:52.469Z,7.40
2018-01-26T20:29:18.648Z,7.40
2018-01-26T20:31:44.793Z,7.30
2018-01-26T20:34:11.000Z,7.40
2018-01-26T20:36:37.199Z,7.30
2018-01-26T20:39:04.078Z,7.30
2018-01-26T20:41:30.349Z,7.20
2018-01-26T20:43:56.585Z,7.20
2018-01-26T20:46:23.514Z,7.20
2018-01-26T20:48:49.713Z,7.20
2018-01-26T20:51:15.953Z,7.20
2018-01-26T20:53:42.180Z,7.20
2018-01-26T20:56:08.475Z,7.30
2018-01-26T20:58:35.402Z,7.30
2018-01-26T21:01:02.389Z,7.20
2018-01-26T21:03:28.578Z,7.20
2018-01-26T21:05:55.510Z,7.20
2018-01-26T21:08:22.422Z,7.20
2018-01-26T21:10:48.666Z,7.20
2018-01-26T21:13:14.846Z,7.20
2018-01-26T21:15:41.101Z,7.20
2018-01-26T21:18:07.395Z,7.20
2018-01-26T21:20:33.590Z,7.20
2018-01-26T21:23:00.570Z,7.20
2018-01-26T21:25:26.759Z,7.20
2018-01-26T21:27:53.678Z,7.20
2018-01-26T21:30:19.828Z,7.20
2018-01-26T21:32:46.086Z,7.10
2018-01-26T21:35:12.267Z,7.10
2018-01-26T21:37:38.458Z,7.00
2018-01-26T21:40:04.726Z,7.00
2018-01-26T21:42:30.944Z,7.00
2018-01-26T21:44:57.278Z,7.00
2018-01-26T21:47:23.523Z,7.00
2018-01-26T21:49:49.721Z,7.00
2018-01-26T21:52:17.647Z,7.00
2018-01-26T21:54:44.074Z,7.00
2018-01-26T21:57:11.222Z,7.00
2018-01-26T21:59:37.669Z,7.00
2018-01-26T22:02:04.161Z,7.00
2018-01-26T22:04:36.704Z,7.00
2018-01-26T22:07:09.209Z,7.10
2018-01-26T22:09:35.637Z,7.10
2018-01-26T22:12:02.024Z,7.10
2018-01-26T22:14:28.499Z,7.10
2018-01-26T22:16:54.844Z,7.10
2018-01-26T22:19:22.145Z,7.10
2018-01-26T22:22:04.272Z,7.10
2018-01-26T22:38:58.961Z,7.00
2018-01-26T22:41:25.135Z,7.00
2018-01-26T22:43:51.307Z,7.00
2018-01-26T22:46:17.563Z,6.90
2018-01-26T22:48:43.785Z,6.90
2018-01-26T22:51:09.963Z,6.80
2018-01-26T22:53:36.887Z,6.90
2018-01-26T22:56:03.056Z,6.90
2018-01-26T22:58:29.208Z,6.80
2018-01-26T23:00:55.434Z,6.90
2018-01-26T23:03:21.709Z,6.80
2018-01-26T23:05:47.906Z,6.80
2018-01-26T23:08:14.101Z,6.80
2018-01-26T23:10:40.280Z,6.80
2018-01-26T23:13:06.532Z,6.80
2018-01-26T23:15:33.506Z,6.90
2018-01-26T23:17:59.725Z,6.80
2018-01-26T23:20:25.935Z,6.80
2018-01-26T23:22:52.178Z,6.80
2018-01-26T23:25:18.378Z,6.90
2018-01-26T23:27:45.306Z,6.70
2018-01-26T23:30:11.496Z,6.70
2018-01-26T23:32:37.739Z,6.80
2018-01-26T23:35:03.974Z,6.80
2018-01-26T23:37:30.169Z,6.90
2018-01-26T23:39:56.333Z,6.90
2018-01-26T23:42:22.566Z,6.90
2018-01-26T23:44:48.809Z,6.90
2018-01-26T23:47:15.807Z,7.00
2018-01-26T23:49:42.059Z,6.90
2018-01-26T23:52:08.230Z,7.00
2018-01-26T23:54:35.100Z,6.80
2018-01-26T23:57:01.281Z,6.80
2018-01-26T23:59:27.452Z,6.70
